Young America, IN

11:46 PM EDT on July 03, 2015 (GMT -0400)
Ervin Township | | Change Station
CLOSE
Current Station
Personal Weather Station
Location: Kokomo, IN
Elevation: 782 ft
Nearby Weather Stations
Active Advisory: Flood Warning

Elev 782 ft 40.50 °N, 86.33 °W | Updated 34 seconds ago

Partly Cloudy
Partly Cloudy
65.1 °F
Feels Like 65.1 °F
N
0.0
Wind Variable Wind from South
Gusts 0.0 mph

Today
High -- | Low -- °F
--% Chance of Precip.
Yesterday
High -- | Low -- °F
Precip. -- in
6:19 AM 9:19 PM
Waning Gibbous, 94% visible
Pressure 29.95 in
Visibility 7.0 miles
Clouds Scattered Clouds 4300 ft
Dew Point 64 °F
Humidity 95%
Rainfall 0.00 in
Snow Depth Not available.
UV 0 out of 12
Pollen .50 out of 12
Air Quality Not available.
Flu Activity Not available.
METAR KGGP 040335Z AUTO 00000KT 7SM SCT043 16/14 A2995 RMK AO2

More Conditions Fewer Conditions

Pressure 29.95 in
Visibility 7.0 miles
Clouds Scattered Clouds 4300 ft
Dew Point 64 °F
Humidity 95%
Rainfall 0.00 in
Snow Depth Not available.
UV 0 out of 12
Pollen .50 out of 12
Air Quality Not available.
Flu Activity Not available.
METAR KGGP 040335Z AUTO 00000KT 7SM SCT043 16/14 A2995 RMK AO2

More Conditions Fewer Conditions

10-Day Weather Forecast

×

Almanac

Astronomy

Jul. 03, 2015 Rise Set
Actual Time
Civil Twilight
Nautical Twilight
Astronomical Twilight
Moon
Length of Visible Light
Length of Day
Tomorrow will be .
, % of the Moon is Illuminated

Today's Extremes

State Highs State Lows

Community

WunderPhotos

Upload Photos

1,834,917 photos uploaded!

WunderBlogs® & News

Nearby

Air Quality

  Air Quality AQ Index Pollutant
Not available.

Snow Depth

Station Depth Elevation

Earthquake Activity

City Distance Mag. Time & Date
Minimum magnitude displayed is 2.5.

Coastal Water Temperatures

Place Temperature

Stations

Nearby Weather Stations

Station Location Temp. Windchill Dew Point Humidity Wind Precip. Elev Updated Type
                   
Flood Warning
Statement as of 11:32 AM EDT on July 03, 2015

The Flood Warning continues for
the Wabash River at Wabash
* until further notice.
* At 10 am Friday the stage was 16.3 feet and falling.
* Minor flooding is occurring and minor flooding is forecast.
* Flood stage is 14.0 feet.
* Forecast... the river will fall to near 16.3 feet around 2 PM
Friday July 3.
* At 17.0 feet... some low lying areas and lowest sections of Wabash
and Lagro begin to flood.


Lat... Lon 4070 8618 4078 8619 4086 8570 4081 8568
      4078 8582